createdAt,value
2019-02-10T00:00:19.012Z,1002.97
2019-02-10T00:01:19.028Z,1002.93
2019-02-10T00:02:19.043Z,1002.94
2019-02-10T00:03:19.059Z,1002.94
2019-02-10T00:04:19.075Z,1002.97
2019-02-10T00:05:19.094Z,1002.92
2019-02-10T00:06:24.430Z,1002.9
2019-02-10T00:07:19.123Z,1002.9
2019-02-10T00:08:19.139Z,1002.9
2019-02-10T00:09:19.154Z,1002.85
2019-02-10T00:11:19.185Z,1002.87
2019-02-10T00:12:19.202Z,1002.9
2019-02-10T00:13:19.217Z,1002.9
2019-02-10T00:14:19.232Z,1002.93
2019-02-10T00:15:19.249Z,1002.91
2019-02-10T00:16:19.267Z,1002.93
2019-02-10T00:17:19.281Z,1002.89
2019-02-10T00:18:19.297Z,1002.9
2019-02-10T00:19:19.311Z,1002.92
2019-02-10T00:20:19.327Z,1002.86
2019-02-10T00:21:19.343Z,1002.91
2019-02-10T00:22:19.359Z,1002.88
2019-02-10T00:23:19.374Z,1002.92
2019-02-10T00:24:19.389Z,1002.88
2019-02-10T00:25:19.405Z,1002.89
2019-02-10T00:27:19.439Z,1002.91
2019-02-10T00:28:19.452Z,1002.89
2019-02-10T00:29:19.467Z,1002.94
2019-02-10T00:30:19.484Z,1002.94
2019-02-10T00:31:19.499Z,1002.94
2019-02-10T00:32:19.575Z,1002.93
2019-02-10T00:33:19.534Z,1002.95
2019-02-10T00:34:19.546Z,1002.97
2019-02-10T00:35:19.561Z,1002.89
2019-02-10T00:36:19.577Z,1002.98
2019-02-10T00:37:19.593Z,1003.01
2019-02-10T00:38:19.609Z,1002.99
2019-02-10T00:39:19.624Z,1002.91
2019-02-10T00:40:19.640Z,1002.97
2019-02-10T00:41:19.656Z,1003
2019-02-10T00:43:19.686Z,1002.94
2019-02-10T00:44:19.702Z,1002.94
2019-02-10T00:45:19.718Z,1002.96
2019-02-10T00:46:19.733Z,1002.97
2019-02-10T00:47:19.749Z,1003.02
2019-02-10T00:48:19.764Z,1003
2019-02-10T00:49:19.780Z,1003
2019-02-10T00:50:19.795Z,1003
2019-02-10T00:51:19.811Z,1003.05
2019-02-10T00:52:19.826Z,1003.01
2019-02-10T00:53:19.842Z,1003
2019-02-10T00:54:19.860Z,1003
2019-02-10T00:55:19.873Z,1003.02
2019-02-10T00:56:19.889Z,1003.03
2019-02-10T00:57:19.904Z,1002.96
2019-02-10T00:59:19.935Z,1003
2019-02-10T01:00:19.951Z,1003.02
2019-02-10T01:01:19.966Z,1002.98
2019-02-10T01:02:19.982Z,1003.01
2019-02-10T01:03:19.998Z,1003.01
2019-02-10T01:04:20.015Z,1003.01
2019-02-10T01:05:20.030Z,1003.01
2019-02-10T01:06:20.045Z,1003.03
2019-02-10T01:07:20.060Z,1003.02
2019-02-10T01:08:20.075Z,1002.99
2019-02-10T01:09:20.094Z,1002.96
2019-02-10T01:10:20.106Z,1002.97
2019-02-10T01:11:20.123Z,1002.97
2019-02-10T01:12:20.138Z,1002.9
2019-02-10T01:14:20.174Z,1002.93
2019-02-10T01:15:20.185Z,1002.88
2019-02-10T01:16:20.203Z,1002.89
2019-02-10T01:17:21.218Z,1002.83
2019-02-10T01:18:20.232Z,1002.84
2019-02-10T01:19:20.247Z,1002.81
2019-02-10T01:20:20.263Z,1002.82
2019-02-10T01:21:20.279Z,1002.78
2019-02-10T01:22:20.294Z,1002.82
2019-02-10T01:23:20.309Z,1002.77
2019-02-10T01:24:20.325Z,1002.74
2019-02-10T01:25:20.341Z,1002.78
2019-02-10T01:26:20.356Z,1002.8
2019-02-10T01:27:20.372Z,1002.79
2019-02-10T01:28:20.388Z,1002.74
2019-02-10T01:29:20.404Z,1002.74
2019-02-10T01:30:20.420Z,1002.76
2019-02-10T01:31:20.434Z,1002.73
2019-02-10T01:32:20.450Z,1002.75
2019-02-10T01:33:20.464Z,1002.77
2019-02-10T01:34:20.480Z,1002.79
2019-02-10T01:35:20.495Z,1002.75
2019-02-10T01:36:20.512Z,1002.79
2019-02-10T01:37:20.526Z,1002.77
2019-02-10T01:38:20.542Z,1002.77
2019-02-10T01:39:20.558Z,1002.8
2019-02-10T01:40:20.575Z,1002.72
2019-02-10T01:41:20.588Z,1002.72
2019-02-10T01:42:20.604Z,1002.75
2019-02-10T01:43:20.620Z,1002.73
2019-02-10T01:44:20.635Z,1002.69
2019-02-10T01:46:20.665Z,1002.68
2019-02-10T01:47:20.681Z,1002.65
2019-02-10T01:48:20.707Z,1002.64
2019-02-10T01:49:20.711Z,1002.7
2019-02-10T01:50:20.727Z,1002.67
2019-02-10T01:51:20.742Z,1002.65
2019-02-10T01:52:20.757Z,1002.6
2019-02-10T01:53:20.773Z,1002.66
2019-02-10T01:54:20.788Z,1002.61
2019-02-10T01:55:20.803Z,1002.6
2019-02-10T01:56:20.819Z,1002.61
2019-02-10T01:57:20.835Z,1002.59
2019-02-10T01:58:20.850Z,1002.54
2019-02-10T01:59:20.864Z,1002.59
2019-02-10T02:00:20.880Z,1002.58
2019-02-10T02:02:20.912Z,1002.54
2019-02-10T02:03:20.925Z,1002.57
2019-02-10T02:04:20.940Z,1002.5
2019-02-10T02:05:20.957Z,1002.5
2019-02-10T02:06:21.002Z,1002.56
2019-02-10T02:07:20.985Z,1002.51
2019-02-10T02:08:21.004Z,1002.46
2019-02-10T02:09:21.017Z,1002.5
2019-02-10T02:10:21.031Z,1002.5
2019-02-10T02:11:21.046Z,1002.46
2019-02-10T02:12:21.062Z,1002.47
2019-02-10T02:13:21.077Z,1002.44
2019-02-10T02:14:21.092Z,1002.46
2019-02-10T02:15:21.107Z,1002.48
2019-02-10T02:16:21.122Z,1002.45
2019-02-10T02:18:21.152Z,1002.41
2019-02-10T02:19:21.168Z,1002.38
2019-02-10T02:20:21.183Z,1002.37
2019-02-10T02:21:21.199Z,1002.37
2019-02-10T02:22:21.213Z,1002.38
2019-02-10T02:23:21.228Z,1002.38
2019-02-10T02:24:21.247Z,1002.35
2019-02-10T02:25:21.258Z,1002.38
2019-02-10T02:26:21.273Z,1002.36
2019-02-10T02:27:21.289Z,1002.33
2019-02-10T02:28:21.304Z,1002.4
2019-02-10T02:29:21.318Z,1002.38
2019-02-10T02:30:21.335Z,1002.34
2019-02-10T02:31:21.349Z,1002.42
2019-02-10T02:32:21.364Z,1002.4
2019-02-10T02:34:21.394Z,1002.33
2019-02-10T02:35:21.409Z,1002.34
2019-02-10T02:36:21.424Z,1002.36
2019-02-10T02:37:21.438Z,1002.28
2019-02-10T02:38:21.457Z,1002.3
2019-02-10T02:39:21.468Z,1002.32
2019-02-10T02:40:21.484Z,1002.27
2019-02-10T02:41:21.498Z,1002.31
2019-02-10T02:42:21.515Z,1002.26
2019-02-10T02:43:21.530Z,1002.22
2019-02-10T02:44:21.548Z,1002.2
2019-02-10T02:45:21.560Z,1002.21
2019-02-10T02:46:21.574Z,1002.2
2019-02-10T02:47:21.589Z,1002.17
2019-02-10T02:49:21.619Z,1002.14
2019-02-10T02:50:21.634Z,1002.14
2019-02-10T02:51:21.713Z,1002.13
2019-02-10T02:52:21.664Z,1002.13
2019-02-10T02:53:21.679Z,1002.07
2019-02-10T02:54:21.697Z,1002.09
2019-02-10T02:55:21.709Z,1002.06
2019-02-10T02:56:21.724Z,1002.03
2019-02-10T02:57:21.789Z,1002.05
2019-02-10T02:58:21.755Z,1002.01
2019-02-10T02:59:21.769Z,1002.02
2019-02-10T03:00:21.784Z,1002
2019-02-10T03:01:21.799Z,1002
2019-02-10T03:02:21.817Z,1001.97
2019-02-10T03:03:21.829Z,1002.02
2019-02-10T03:04:21.844Z,1001.94
2019-02-10T03:05:21.864Z,1001.94
2019-02-10T03:06:21.873Z,1001.93
2019-02-10T03:07:21.889Z,1001.91
2019-02-10T03:08:21.904Z,1001.9
2019-02-10T03:09:21.918Z,1001.88
2019-02-10T03:10:21.934Z,1001.83
2019-02-10T03:11:21.950Z,1001.84
2019-02-10T03:12:21.963Z,1001.79
2019-02-10T03:13:21.980Z,1001.82
2019-02-10T03:14:21.994Z,1001.77
2019-02-10T03:15:22.012Z,1001.8
2019-02-10T03:16:22.022Z,1001.81
2019-02-10T03:17:22.038Z,1001.84
2019-02-10T03:18:22.085Z,1001.79
2019-02-10T03:19:22.067Z,1001.79
2019-02-10T03:21:22.099Z,1001.8
2019-02-10T03:22:22.113Z,1001.75
2019-02-10T03:23:22.127Z,1001.75
2019-02-10T03:24:22.142Z,1001.73
2019-02-10T03:25:22.157Z,1001.8
2019-02-10T03:26:22.172Z,1001.76
2019-02-10T03:27:22.190Z,1001.75
2019-02-10T03:28:22.205Z,1001.73
2019-02-10T03:29:22.319Z,1001.73
2019-02-10T03:30:22.233Z,1001.71
2019-02-10T03:31:22.252Z,1001.74
2019-02-10T03:32:22.277Z,1001.73
2019-02-10T03:33:22.277Z,1001.73
2019-02-10T03:34:22.290Z,1001.7
2019-02-10T03:35:22.305Z,1001.64
2019-02-10T03:37:27.091Z,1001.65
2019-02-10T03:38:22.350Z,1001.71
2019-02-10T03:39:22.367Z,1001.72
2019-02-10T03:40:22.380Z,1001.72
2019-02-10T03:41:22.394Z,1001.7
2019-02-10T03:42:22.416Z,1001.72
2019-02-10T03:43:22.427Z,1001.64
2019-02-10T03:44:22.439Z,1001.67
2019-02-10T03:45:22.453Z,1001.65
2019-02-10T03:46:22.469Z,1001.63
2019-02-10T03:47:22.489Z,1001.58
2019-02-10T03:48:22.499Z,1001.53
2019-02-10T03:49:22.513Z,1001.51
2019-02-10T03:50:22.528Z,1001.47
2019-02-10T03:51:22.565Z,1001.51
2019-02-10T03:53:22.573Z,1001.51
2019-02-10T03:54:22.587Z,1001.51
2019-02-10T03:55:22.603Z,1001.48
2019-02-10T03:56:22.628Z,1001.44
2019-02-10T03:57:22.638Z,1001.47
2019-02-10T03:58:22.646Z,1001.42
2019-02-10T03:59:22.661Z,1001.46
2019-02-10T04:00:22.675Z,1001.41
2019-02-10T04:01:22.691Z,1001.42
2019-02-10T04:02:22.705Z,1001.41
2019-02-10T04:03:22.720Z,1001.41
2019-02-10T04:04:22.736Z,1001.41
2019-02-10T04:05:22.750Z,1001.39
2019-02-10T04:06:22.764Z,1001.37
2019-02-10T04:07:22.878Z,1001.36
2019-02-10T04:09:22.910Z,1001.3
2019-02-10T04:10:22.823Z,1001.28
2019-02-10T04:11:22.837Z,1001.23
2019-02-10T04:12:22.851Z,1001.26
2019-02-10T04:13:22.867Z,1001.25
2019-02-10T04:14:22.881Z,1001.22
2019-02-10T04:15:22.897Z,1001.24
2019-02-10T04:16:22.911Z,1001.22
2019-02-10T04:17:22.926Z,1001.21
2019-02-10T04:18:22.940Z,1001.23
2019-02-10T04:19:22.955Z,1001.17
2019-02-10T04:20:22.973Z,1001.18
2019-02-10T04:21:22.997Z,1001.23
2019-02-10T04:22:23.000Z,1001.21
2019-02-10T04:24:23.030Z,1001.19
2019-02-10T04:25:23.043Z,1001.19
2019-02-10T04:26:23.058Z,1001.15
2019-02-10T04:27:23.075Z,1001.13
2019-02-10T04:28:23.089Z,1001.12
2019-02-10T04:29:23.102Z,1001.1
2019-02-10T04:30:23.129Z,1001.09
2019-02-10T04:31:23.131Z,1001.08
2019-02-10T04:32:23.147Z,1001.06
2019-02-10T04:33:23.261Z,1001.03
2019-02-10T04:34:23.176Z,1001.03
2019-02-10T04:35:23.190Z,1000.98
2019-02-10T04:36:23.203Z,1001.02
2019-02-10T04:37:23.218Z,1001.04
2019-02-10T04:38:23.233Z,1000.99
2019-02-10T04:39:23.248Z,1000.99
2019-02-10T04:40:23.262Z,1001.05
2019-02-10T04:41:23.277Z,1001.01
2019-02-10T04:42:23.297Z,1001
2019-02-10T04:43:23.305Z,1000.99
2019-02-10T04:44:23.320Z,1000.98
2019-02-10T04:45:23.336Z,1001
2019-02-10T04:46:23.350Z,1000.98
2019-02-10T04:47:23.363Z,1000.99
2019-02-10T04:48:23.378Z,1000.98
2019-02-10T04:49:23.392Z,1000.93
2019-02-10T04:50:23.409Z,1000.97
2019-02-10T04:51:23.421Z,1000.96
2019-02-10T04:52:23.436Z,1000.9
2019-02-10T04:53:23.452Z,1000.91
2019-02-10T04:54:23.468Z,1000.79
2019-02-10T04:56:23.494Z,1000.87
2019-02-10T04:57:23.510Z,1000.85
2019-02-10T04:58:23.523Z,1000.84
2019-02-10T04:59:23.549Z,1000.82
2019-02-10T05:00:23.552Z,1000.77
2019-02-10T05:01:23.567Z,1000.79
2019-02-10T05:02:23.581Z,1000.73
2019-02-10T05:03:23.596Z,1000.76
2019-02-10T05:04:23.611Z,1000.74
2019-02-10T05:05:23.631Z,1000.74
2019-02-10T05:06:23.639Z,1000.75
2019-02-10T05:07:23.654Z,1000.68
2019-02-10T05:08:23.668Z,1000.69
2019-02-10T05:09:23.689Z,1000.63
2019-02-10T05:10:23.697Z,1000.64
2019-02-10T05:12:23.726Z,1000.67
2019-02-10T05:13:23.741Z,1000.56
2019-02-10T05:14:23.758Z,1000.58
2019-02-10T05:15:23.770Z,1000.55
2019-02-10T05:16:23.784Z,1000.54
2019-02-10T05:17:23.799Z,1000.52
2019-02-10T05:18:23.813Z,1000.55
2019-02-10T05:19:23.828Z,1000.53
2019-02-10T05:20:23.842Z,1000.52
2019-02-10T05:21:23.857Z,1000.45
2019-02-10T05:22:23.871Z,1000.38
2019-02-10T05:23:23.888Z,1000.46
2019-02-10T05:24:23.900Z,1000.41
2019-02-10T05:25:23.915Z,1000.4
2019-02-10T05:26:23.929Z,1000.39
2019-02-10T05:28:23.958Z,1000.37
2019-02-10T05:29:23.972Z,1000.33
2019-02-10T05:30:23.986Z,1000.31
2019-02-10T05:31:24.001Z,1000.29
2019-02-10T05:32:24.016Z,1000.33
2019-02-10T05:33:24.029Z,1000.26
2019-02-10T05:34:24.045Z,1000.27
2019-02-10T05:35:24.058Z,1000.24
2019-02-10T05:36:24.073Z,1000.23
2019-02-10T05:37:24.088Z,1000.26
2019-02-10T05:38:24.102Z,1000.22
2019-02-10T05:39:24.116Z,1000.23
2019-02-10T05:40:24.130Z,1000.17
2019-02-10T05:41:24.147Z,1000.19
2019-02-10T05:42:24.159Z,1000.14
2019-02-10T05:44:24.189Z,1000.15
2019-02-10T05:45:24.204Z,1000.12
2019-02-10T05:46:24.221Z,1000.06
2019-02-10T05:47:24.233Z,1000.07
2019-02-10T05:48:24.246Z,1000.08
2019-02-10T05:49:24.264Z,1000.08
2019-02-10T05:50:24.275Z,1000.04
2019-02-10T05:51:24.289Z,1000.01
2019-02-10T05:52:24.304Z,999.99
2019-02-10T05:53:24.318Z,1000.01
2019-02-10T05:54:24.335Z,999.98
2019-02-10T05:55:24.349Z,999.99
2019-02-10T05:56:24.363Z,999.92
2019-02-10T05:57:24.376Z,999.88
2019-02-10T05:59:24.418Z,999.87
2019-02-10T06:00:24.421Z,999.84
2019-02-10T06:01:24.434Z,999.79
2019-02-10T06:02:24.451Z,999.77
2019-02-10T06:03:24.464Z,999.71
2019-02-10T06:04:24.478Z,999.75
2019-02-10T06:05:24.493Z,999.71
2019-02-10T06:06:24.507Z,999.71
2019-02-10T06:07:24.521Z,999.72
2019-02-10T06:08:24.536Z,999.69
2019-02-10T06:09:24.550Z,999.67
2019-02-10T06:10:24.564Z,999.66
2019-02-10T06:11:24.578Z,999.65
2019-02-10T06:12:24.593Z,999.65
2019-02-10T06:13:24.610Z,999.64
2019-02-10T06:14:24.623Z,999.64
2019-02-10T06:15:24.637Z,999.6
2019-02-10T06:16:24.653Z,999.53
2019-02-10T06:17:24.697Z,999.54
2019-02-10T06:18:24.680Z,999.5
2019-02-10T06:19:24.695Z,999.46
2019-02-10T06:20:24.711Z,999.41
2019-02-10T06:21:24.727Z,999.45
2019-02-10T06:22:24.739Z,999.37
2019-02-10T06:23:24.753Z,999.37
2019-02-10T06:24:24.768Z,999.36
2019-02-10T06:25:24.795Z,999.32
2019-02-10T06:26:24.797Z,999.32
2019-02-10T06:27:24.815Z,999.37
2019-02-10T06:28:24.830Z,999.37
2019-02-10T06:29:24.841Z,999.41
2019-02-10T06:31:24.871Z,999.34
2019-02-10T06:32:24.887Z,999.37
2019-02-10T06:33:24.900Z,999.35
2019-02-10T06:34:24.916Z,999.36
2019-02-10T06:35:24.929Z,999.36
2019-02-10T06:36:24.955Z,999.3
2019-02-10T06:37:24.959Z,999.28
2019-02-10T06:38:24.973Z,999.3
2019-02-10T06:39:24.988Z,999.26
2019-02-10T06:40:25.003Z,999.26
2019-02-10T06:41:25.016Z,999.25
2019-02-10T06:42:25.032Z,999.27
2019-02-10T06:43:25.046Z,999.23
2019-02-10T06:44:25.060Z,999.22
2019-02-10T06:45:25.075Z,999.16
2019-02-10T06:47:25.104Z,999.13
2019-02-10T06:48:25.119Z,999.12
2019-02-10T06:49:25.133Z,999.12
2019-02-10T06:50:25.148Z,999.18
2019-02-10T06:51:25.163Z,999.06
2019-02-10T06:52:25.177Z,999.08
2019-02-10T06:53:25.193Z,999.11
2019-02-10T06:54:25.208Z,999.14
2019-02-10T06:55:25.221Z,999.12
2019-02-10T06:56:25.237Z,999.1
2019-02-10T06:57:25.251Z,999.14
2019-02-10T06:58:25.266Z,999.12
2019-02-10T06:59:25.280Z,999.15
2019-02-10T07:00:25.295Z,999.08
2019-02-10T07:01:25.310Z,999.09
2019-02-10T07:03:25.340Z,999.08
2019-02-10T07:04:25.354Z,999.06
2019-02-10T07:05:25.369Z,999.03
2019-02-10T07:06:25.383Z,999.02
2019-02-10T07:07:25.399Z,999.01
2019-02-10T07:08:30.340Z,998.98
2019-02-10T07:09:25.429Z,998.98
2019-02-10T07:10:25.443Z,998.98
2019-02-10T07:11:25.458Z,998.92
2019-02-10T07:12:25.473Z,998.88
2019-02-10T07:13:25.487Z,998.9
2019-02-10T07:14:25.507Z,998.87
2019-02-10T07:15:25.517Z,998.81
2019-02-10T07:16:25.534Z,998.76
2019-02-10T07:17:25.546Z,998.7
2019-02-10T07:19:25.577Z,998.72
2019-02-10T07:20:25.592Z,998.7
2019-02-10T07:21:25.606Z,998.66
2019-02-10T07:22:25.626Z,998.62
2019-02-10T07:23:25.637Z,998.64
2019-02-10T07:24:25.651Z,998.64
2019-02-10T07:25:25.666Z,998.58
2019-02-10T07:26:25.681Z,998.63
2019-02-10T07:27:25.696Z,998.59
2019-02-10T07:28:25.711Z,998.59
2019-02-10T07:29:25.725Z,998.56
2019-02-10T07:30:25.741Z,998.51
2019-02-10T07:31:25.756Z,998.46
2019-02-10T07:32:25.772Z,998.46
2019-02-10T07:34:25.802Z,998.44
2019-02-10T07:35:25.821Z,998.38
2019-02-10T07:36:25.832Z,998.38
2019-02-10T07:37:25.847Z,998.38
2019-02-10T07:38:25.862Z,998.37
2019-02-10T07:39:25.876Z,998.31
2019-02-10T07:40:25.892Z,998.27
2019-02-10T07:41:25.907Z,998.3
2019-02-10T07:42:25.922Z,998.33
2019-02-10T07:43:25.940Z,998.26
2019-02-10T07:44:25.956Z,998.21
2019-02-10T07:45:25.968Z,998.18
2019-02-10T07:46:25.982Z,998.18
2019-02-10T07:47:25.998Z,998.14
2019-02-10T07:48:26.013Z,998.13
2019-02-10T07:49:26.029Z,998.11
2019-02-10T07:50:26.048Z,998.03
2019-02-10T07:51:26.058Z,998.03
2019-02-10T07:52:26.074Z,998
2019-02-10T07:53:26.088Z,998.01
2019-02-10T07:54:26.127Z,997.97
2019-02-10T07:55:26.119Z,997.92
2019-02-10T07:56:26.135Z,997.88
2019-02-10T07:57:26.149Z,997.82
2019-02-10T07:58:26.164Z,997.79
2019-02-10T07:59:26.181Z,997.77
2019-02-10T08:00:26.195Z,997.74
2019-02-10T08:01:26.210Z,997.72
2019-02-10T08:02:26.225Z,997.7
2019-02-10T08:03:26.241Z,997.72
2019-02-10T08:04:26.256Z,997.7
2019-02-10T08:06:26.289Z,997.64
2019-02-10T08:07:26.302Z,997.63
2019-02-10T08:08:26.689Z,997.63
2019-02-10T08:09:26.333Z,997.59
2019-02-10T08:10:26.351Z,997.64
2019-02-10T08:11:26.363Z,997.59
2019-02-10T08:12:26.378Z,997.57
2019-02-10T08:13:26.394Z,997.59
2019-02-10T08:14:26.410Z,997.52
2019-02-10T08:15:26.424Z,997.54
2019-02-10T08:16:26.439Z,997.55
2019-02-10T08:17:26.455Z,997.54
2019-02-10T08:18:26.471Z,997.54
2019-02-10T08:19:26.487Z,997.5
2019-02-10T08:20:26.503Z,997.55
2019-02-10T08:22:26.532Z,997.54
2019-02-10T08:23:26.548Z,997.51
2019-02-10T08:24:26.563Z,997.51
2019-02-10T08:25:26.579Z,997.48
2019-02-10T08:26:26.593Z,997.45
2019-02-10T08:27:26.719Z,997.52
2019-02-10T08:28:26.625Z,997.47
2019-02-10T08:29:26.640Z,997.44
2019-02-10T08:30:26.655Z,997.42
2019-02-10T08:31:26.671Z,997.37
2019-02-10T08:32:26.687Z,997.36
2019-02-10T08:33:26.703Z,997.34
2019-02-10T08:34:26.719Z,997.32
2019-02-10T08:35:27.415Z,997.24
2019-02-10T08:36:26.750Z,997.13
2019-02-10T08:38:26.779Z,997.14
2019-02-10T08:39:26.795Z,997.15
2019-02-10T08:40:26.810Z,997.11
2019-02-10T08:41:26.826Z,997.09
2019-02-10T08:42:26.841Z,997.07
2019-02-10T08:43:26.857Z,996.96
2019-02-10T08:44:26.873Z,997
2019-02-10T08:45:26.887Z,996.93
2019-02-10T08:46:26.903Z,996.88
2019-02-10T08:47:33.536Z,996.9
2019-02-10T08:48:26.937Z,996.84
2019-02-10T08:49:26.953Z,996.8
2019-02-10T08:50:26.965Z,996.78
2019-02-10T08:51:26.981Z,996.74
2019-02-10T08:52:26.995Z,996.72
2019-02-10T08:54:27.029Z,996.57
2019-02-10T08:55:27.043Z,996.53
2019-02-10T08:56:27.057Z,996.51
2019-02-10T08:57:27.073Z,996.48
2019-02-10T08:58:27.089Z,996.44
2019-02-10T08:59:27.103Z,996.39
2019-02-10T09:00:27.119Z,996.36
2019-02-10T09:01:27.137Z,996.32
2019-02-10T09:02:27.150Z,996.29
2019-02-10T09:03:27.165Z,996.22
2019-02-10T09:04:27.183Z,996.23
2019-02-10T09:05:27.196Z,996.24
2019-02-10T09:06:27.211Z,996.22
2019-02-10T09:07:27.229Z,996.15
2019-02-10T09:09:27.258Z,996.06
2019-02-10T09:10:27.274Z,996.02
2019-02-10T09:11:27.289Z,995.95
2019-02-10T09:12:27.306Z,995.94
2019-02-10T09:13:27.320Z,995.88
2019-02-10T09:14:27.335Z,995.82
2019-02-10T09:15:27.396Z,995.81
2019-02-10T09:16:27.370Z,995.74
2019-02-10T09:17:27.380Z,995.66
2019-02-10T09:18:27.497Z,995.7
2019-02-10T09:19:27.411Z,995.66
2019-02-10T09:20:27.441Z,995.63
2019-02-10T09:21:27.442Z,995.57
2019-02-10T09:22:27.457Z,995.58
2019-02-10T09:23:27.472Z,995.51
2019-02-10T09:24:27.488Z,995.48
2019-02-10T09:25:27.502Z,995.41
2019-02-10T09:26:27.517Z,995.35
2019-02-10T09:27:27.533Z,995.26
2019-02-10T09:28:27.549Z,995.26
2019-02-10T09:29:27.562Z,995.19
2019-02-10T09:30:27.581Z,995.22
2019-02-10T09:31:27.593Z,995.21
2019-02-10T09:32:27.607Z,995.16
2019-02-10T09:33:27.622Z,995.11
2019-02-10T09:34:27.638Z,995
2019-02-10T09:35:27.653Z,994.99
2019-02-10T09:36:27.671Z,994.99
2019-02-10T09:37:27.683Z,994.96
2019-02-10T09:38:27.699Z,994.93
2019-02-10T09:39:27.711Z,994.9
2019-02-10T09:41:27.743Z,994.84
2019-02-10T09:42:27.758Z,994.79
2019-02-10T09:43:27.771Z,994.76
2019-02-10T09:44:27.787Z,994.81
2019-02-10T09:45:27.801Z,994.74
2019-02-10T09:46:27.816Z,994.69
2019-02-10T09:47:27.832Z,994.63
2019-02-10T09:48:27.846Z,994.58
2019-02-10T09:49:27.861Z,994.55
2019-02-10T09:50:27.875Z,994.49
2019-02-10T09:51:27.890Z,994.43
2019-02-10T09:52:27.905Z,994.42
2019-02-10T09:53:27.922Z,994.37
2019-02-10T09:54:27.934Z,994.37
2019-02-10T09:55:27.950Z,994.34
2019-02-10T09:57:27.982Z,994.45
2019-02-10T09:58:27.994Z,994.26
2019-02-10T09:59:28.009Z,994.24
2019-02-10T10:00:28.024Z,994.14
2019-02-10T10:01:28.038Z,994.18
2019-02-10T10:02:28.053Z,994.08
2019-02-10T10:03:28.068Z,994.11
2019-02-10T10:04:28.084Z,994.08
2019-02-10T10:05:28.097Z,994.08
2019-02-10T10:06:28.112Z,993.98
2019-02-10T10:07:28.127Z,994.02
2019-02-10T10:08:28.142Z,993.92
2019-02-10T10:09:28.157Z,993.87
2019-02-10T10:10:28.174Z,993.84
2019-02-10T10:11:28.187Z,993.82
2019-02-10T10:13:28.221Z,993.76
2019-02-10T10:14:30.752Z,993.72
2019-02-10T10:15:28.247Z,993.69
2019-02-10T10:16:28.260Z,993.63
2019-02-10T10:17:28.314Z,993.61
2019-02-10T10:18:28.291Z,993.63
2019-02-10T10:19:28.306Z,993.52
2019-02-10T10:20:28.320Z,993.37
2019-02-10T10:21:28.335Z,993.41
2019-02-10T10:22:28.351Z,993.37
2019-02-10T10:23:28.367Z,993.38
2019-02-10T10:24:28.380Z,993.28
2019-02-10T10:25:28.394Z,993.25
2019-02-10T10:26:28.410Z,993.26
2019-02-10T10:27:28.424Z,993.19
2019-02-10T10:29:28.455Z,993.13
2019-02-10T10:30:28.469Z,993.11
2019-02-10T10:31:28.486Z,993.04
2019-02-10T10:32:28.498Z,993.01
2019-02-10T10:33:28.514Z,992.88
2019-02-10T10:34:28.528Z,992.91
2019-02-10T10:35:28.544Z,992.88
2019-02-10T10:36:28.558Z,992.87
2019-02-10T10:37:28.573Z,992.91
2019-02-10T10:38:28.588Z,992.85
2019-02-10T10:39:28.603Z,992.88
2019-02-10T10:40:28.619Z,992.79
2019-02-10T10:41:28.633Z,992.72
2019-02-10T10:42:28.649Z,992.72
2019-02-10T10:44:28.680Z,992.53
2019-02-10T10:45:28.693Z,992.43
2019-02-10T10:46:28.709Z,992.36
2019-02-10T10:47:28.724Z,992.31
2019-02-10T10:48:28.839Z,992.25
2019-02-10T10:49:28.753Z,992.19
2019-02-10T10:50:28.768Z,992.11
2019-02-10T10:51:28.783Z,992.1
2019-02-10T10:52:28.797Z,992.12
2019-02-10T10:53:28.813Z,992.13
2019-02-10T10:54:28.828Z,992.05
2019-02-10T10:55:28.844Z,992.06
2019-02-10T10:56:28.858Z,992.01
2019-02-10T10:57:28.873Z,991.98
2019-02-10T10:58:28.888Z,991.93
2019-02-10T10:59:28.903Z,991.82
2019-02-10T11:00:28.917Z,991.84
2019-02-10T11:01:28.932Z,991.77
2019-02-10T11:02:28.948Z,991.75
2019-02-10T11:03:28.962Z,991.68
2019-02-10T11:04:28.977Z,991.61
2019-02-10T11:05:28.993Z,991.67
2019-02-10T11:06:29.008Z,991.66
2019-02-10T11:07:29.025Z,991.58
2019-02-10T11:08:29.037Z,991.53
2019-02-10T11:09:35.342Z,991.45
2019-02-10T11:10:29.069Z,991.53
2019-02-10T11:11:29.082Z,991.6
2019-02-10T11:12:29.097Z,991.54
2019-02-10T11:13:29.113Z,991.47
2019-02-10T11:14:29.127Z,991.5
2019-02-10T11:16:29.157Z,991.36
2019-02-10T11:17:29.173Z,991.37
2019-02-10T11:18:29.187Z,991.32
2019-02-10T11:19:29.202Z,991.36
2019-02-10T11:20:29.217Z,991.28
2019-02-10T11:21:29.233Z,991.25
2019-02-10T11:22:29.246Z,991.23
2019-02-10T11:23:29.262Z,991.2
2019-02-10T11:24:29.278Z,991.12
2019-02-10T11:25:29.292Z,990.99
2019-02-10T11:26:29.306Z,991.03
2019-02-10T11:27:29.323Z,991.08
2019-02-10T11:28:29.338Z,991.06
2019-02-10T11:29:29.352Z,991.11
2019-02-10T11:30:29.369Z,991.05
2019-02-10T11:32:29.397Z,990.89
2019-02-10T11:33:29.412Z,990.86
2019-02-10T11:34:29.427Z,990.72
2019-02-10T11:35:29.442Z,990.86
2019-02-10T11:36:29.456Z,990.82
2019-02-10T11:37:31.031Z,990.82
2019-02-10T11:38:29.488Z,990.82
2019-02-10T11:39:29.503Z,990.9
2019-02-10T11:40:29.518Z,990.89
2019-02-10T11:41:29.536Z,990.9
2019-02-10T11:42:29.547Z,990.7
2019-02-10T11:43:29.563Z,990.7
2019-02-10T11:44:29.578Z,990.76
2019-02-10T11:45:29.592Z,990.6
2019-02-10T11:46:29.658Z,990.41
2019-02-10T11:48:29.638Z,990.51
2019-02-10T11:49:29.653Z,990.57
2019-02-10T11:50:29.668Z,990.47
2019-02-10T11:51:29.683Z,990.42
2019-02-10T11:52:29.698Z,990.26
2019-02-10T11:53:29.716Z,990.32
2019-02-10T11:54:29.731Z,990.19
2019-02-10T11:55:29.743Z,990.03
2019-02-10T11:56:29.758Z,990.02
2019-02-10T11:57:29.774Z,990.05
2019-02-10T11:58:29.788Z,990.16
2019-02-10T11:59:29.804Z,990.2
2019-02-10T12:00:29.819Z,990.15
2019-02-10T12:01:29.836Z,990.14
2019-02-10T12:02:37.532Z,990.08
2019-02-10T12:04:29.880Z,989.97
2019-02-10T12:05:29.896Z,989.89
2019-02-10T12:06:29.911Z,989.94
2019-02-10T12:07:29.925Z,989.91
2019-02-10T12:08:35.518Z,989.88
2019-02-10T12:09:29.956Z,989.9
2019-02-10T12:10:29.972Z,989.91
2019-02-10T12:11:29.987Z,989.94
2019-02-10T12:12:30.003Z,989.92
2019-02-10T12:13:30.018Z,989.9
2019-02-10T12:14:30.033Z,989.82
2019-02-10T12:15:30.048Z,989.81
2019-02-10T12:16:30.064Z,989.85
2019-02-10T12:17:30.080Z,989.79
2019-02-10T12:19:30.111Z,989.77
2019-02-10T12:20:30.127Z,989.81
2019-02-10T12:21:30.141Z,989.71
2019-02-10T12:22:30.157Z,989.69
2019-02-10T12:23:30.174Z,989.57
2019-02-10T12:24:30.188Z,989.54
2019-02-10T12:25:30.203Z,989.56
2019-02-10T12:26:30.219Z,989.56
2019-02-10T12:27:30.234Z,989.46
2019-02-10T12:28:30.249Z,989.51
2019-02-10T12:29:30.315Z,989.5
2019-02-10T12:30:30.281Z,989.48
2019-02-10T12:31:30.305Z,989.47
2019-02-10T12:32:30.311Z,989.45
2019-02-10T12:33:30.327Z,989.38
2019-02-10T12:34:30.343Z,989.43
2019-02-10T12:35:30.357Z,989.39
2019-02-10T12:36:30.373Z,989.38
2019-02-10T12:37:32.405Z,989.31
2019-02-10T12:38:30.404Z,989.28
2019-02-10T12:39:30.420Z,989.28
2019-02-10T12:40:30.435Z,989.22
2019-02-10T12:41:30.454Z,989.22
2019-02-10T12:42:30.466Z,989.19
2019-02-10T12:43:30.482Z,989.12
2019-02-10T12:44:30.498Z,989.16
2019-02-10T12:45:30.513Z,989.08
2019-02-10T12:46:30.528Z,989.1
2019-02-10T12:47:30.544Z,989.11
2019-02-10T12:48:30.560Z,989
2019-02-10T12:49:30.575Z,988.86
2019-02-10T12:51:30.607Z,988.81
2019-02-10T12:52:30.623Z,988.83
2019-02-10T12:53:30.637Z,988.83
2019-02-10T12:54:30.653Z,988.86
2019-02-10T12:55:30.669Z,988.88
2019-02-10T12:56:30.685Z,988.82
2019-02-10T12:57:30.700Z,988.77
2019-02-10T12:58:30.716Z,988.68
2019-02-10T12:59:30.732Z,988.67
2019-02-10T13:00:30.747Z,988.65
2019-02-10T13:01:30.763Z,988.64
2019-02-10T13:02:30.779Z,988.64